Time;durP1;ratioP1;P1;durP2;ratioP2;P2;SDS_P1;SDS_P2;PMS_P1;PMS_P2;Temp;Humidity;BMP_temperature;BMP_pressure;BME280_temperature;BME280_humidity;BME280_pressure;Samples;Min_cycle;Max_cycle;Signal;HPM_P1;HPM_P2
2021/06/13 00:00:39;;;;;;;;;11.75;9.00;;;;;26.93;41.40;101694.03;4987160;28;45322;-81
2021/06/13 00:03:05;;;;;;;;;8.00;8.00;;;;;26.91;40.98;101688.75;4981402;28;45457;-82
2021/06/13 00:05:30;;;;;;;;;9.00;7.75;;;;;26.89;41.30;101692.44;4975372;28;55064;-82
2021/06/13 00:07:56;;;;;;;;;8.50;6.75;;;;;26.84;41.53;101694.44;4950781;28;51747;-82
2021/06/13 00:10:21;;;;;;;;;6.50;6.50;;;;;26.85;41.13;101697.09;4966999;28;51804;-82
2021/06/13 00:12:46;;;;;;;;;9.50;9.50;;;;;26.86;41.66;101692.59;4966293;28;61930;-82
2021/06/13 00:15:14;;;;;;;;;7.25;7.00;;;;;26.83;40.99;101676.63;4950423;28;47257;-82
2021/06/13 00:17:40;;;;;;;;;9.75;7.75;;;;;26.82;41.49;101681.13;4967426;28;45301;-82
2021/06/13 00:20:07;;;;;;;;;6.50;6.50;;;;;26.85;41.35;101688.19;4967074;28;45251;-82
2021/06/13 00:22:33;;;;;;;;;6.00;5.00;;;;;26.85;41.35;101683.69;4967149;28;45216;-82
2021/06/13 00:24:58;;;;;;;;;6.75;6.75;;;;;26.83;41.29;101685.53;4967270;28;45264;-82
2021/06/13 00:27:23;;;;;;;;;8.00;6.75;;;;;26.85;41.11;101680.16;4968628;28;45246;-81
2021/06/13 00:29:49;;;;;;;;;8.00;6.00;;;;;26.82;41.39;101675.78;5011731;28;45374;-82
2021/06/13 00:32:14;;;;;;;;;7.50;6.75;;;;;26.84;41.14;101673.88;5002878;28;45375;-82
2021/06/13 00:34:40;;;;;;;;;7.00;7.00;;;;;26.81;41.86;101679.38;5002440;28;47474;-81
2021/06/13 00:37:05;;;;;;;;;7.00;7.00;;;;;26.78;41.79;101671.50;4986354;28;45378;-81
2021/06/13 00:39:31;;;;;;;;;8.25;6.50;;;;;26.79;41.71;101673.22;5003056;28;45357;-80
2021/06/13 00:41:56;;;;;;;;;9.75;8.25;;;;;26.75;41.98;101669.81;4967954;28;48379;-81
2021/06/13 00:44:22;;;;;;;;;9.00;7.25;;;;;26.76;41.45;101676.94;5011080;28;45416;-81
2021/06/13 00:46:47;;;;;;;;;8.50;8.00;;;;;26.75;41.65;101679.66;4966669;28;45490;-81
2021/06/13 00:49:12;;;;;;;;;8.50;8.50;;;;;26.70;41.45;101674.50;4949630;28;64270;-81
2021/06/13 00:51:38;;;;;;;;;10.25;9.50;;;;;26.70;41.53;101676.31;4987388;28;57052;-82
2021/06/13 00:54:03;;;;;;;;;7.75;7.00;;;;;26.73;41.76;101677.03;4965908;28;63022;-81
2021/06/13 00:56:29;;;;;;;;;8.00;7.25;;;;;26.71;41.41;101673.56;4967994;28;45815;-82
2021/06/13 00:58:54;;;;;;;;;10.25;9.00;;;;;26.69;41.82;101664.72;4982524;28;47324;-82
2021/06/13 01:01:20;;;;;;;;;7.25;6.00;;;;;26.66;41.87;101670.19;4950849;28;45479;-81
2021/06/13 01:03:47;;;;;;;;;9.50;7.25;;;;;26.61;42.00;101655.28;4982709;28;46230;-81
2021/06/13 01:06:19;;;;;;;;;8.50;8.50;;;;;26.63;41.78;101656.97;4982422;28;45544;-81
2021/06/13 01:08:56;;;;;;;;;8.00;7.00;;;;;26.64;41.80;101679.25;4983372;28;45278;-81
2021/06/13 01:11:31;;;;;;;;;7.75;6.75;;;;;26.61;42.28;101672.22;5002116;28;45652;-81
2021/06/13 01:14:03;;;;;;;;;7.25;7.25;;;;;26.59;42.25;101671.44;5001101;28;46253;-82
2021/06/13 01:16:52;;;;;;;;;10.00;7.00;;;;;26.59;42.20;101667.88;5000253;28;45335;-81
2021/06/13 01:19:54;;;;;;;;;6.25;6.25;;;;;26.58;42.36;101676.81;4983588;28;45528;-82
2021/06/13 01:22:25;;;;;;;;;9.75;7.25;;;;;26.55;42.24;101675.16;4999991;28;45598;-81
2021/06/13 01:25:12;;;;;;;;;7.50;7.25;;;;;26.52;42.15;101677.97;4993695;28;47264;-81
2021/06/13 01:28:02;;;;;;;;;8.00;8.00;;;;;26.48;41.99;101682.56;5002035;28;45528;-81
2021/06/13 01:30:29;;;;;;;;;8.50;6.75;;;;;26.44;41.97;101680.97;5002543;28;45278;-81
2021/06/13 01:32:56;;;;;;;;;7.75;7.00;;;;;26.42;42.45;101680.19;4985234;28;45497;-82
2021/06/13 01:35:22;;;;;;;;;9.25;8.50;;;;;26.41;42.11;101688.25;4985536;28;45330;-82
2021/06/13 01:37:51;;;;;;;;;6.50;6.25;;;;;26.39;42.23;101688.31;4985717;28;45398;-82
2021/06/13 01:40:16;;;;;;;;;8.75;8.00;;;;;26.41;42.19;101690.91;4986112;28;45282;-81
2021/06/13 01:42:46;;;;;;;;;7.50;6.25;;;;;26.41;42.32;101685.56;4969402;28;49237;-81
2021/06/13 01:45:14;;;;;;;;;8.25;7.75;;;;;26.40;41.88;101690.03;4985639;28;45454;-82
2021/06/13 01:47:40;;;;;;;;;7.50;7.25;;;;;26.38;41.82;101691.94;4969908;28;45552;-82
2021/06/13 01:50:08;;;;;;;;;7.50;7.50;;;;;26.37;42.66;101687.47;4985575;28;45425;-81
2021/06/13 01:52:34;;;;;;;;;7.25;6.25;;;;;26.34;41.81;101692.09;5008246;28;45420;-82
2021/06/13 01:55:00;;;;;;;;;6.50;6.25;;;;;26.36;42.18;101693.78;5002948;28;46302;-81
2021/06/13 01:57:28;;;;;;;;;8.00;7.00;;;;;26.35;41.71;101691.16;4985202;28;53940;-81
2021/06/13 01:59:55;;;;;;;;;9.00;9.00;;;;;26.36;42.08;101693.78;4993975;28;45305;-81
2021/06/13 02:02:23;;;;;;;;;8.50;8.50;;;;;26.35;42.32;101696.50;5008848;28;45326;-80
2021/06/13 02:04:48;;;;;;;;;9.00;8.00;;;;;26.34;42.28;101695.66;4975545;28;46248;-81
2021/06/13 02:07:14;;;;;;;;;9.50;9.00;;;;;26.32;42.15;101697.50;4988598;28;45432;-81
2021/06/13 02:09:43;;;;;;;;;8.25;7.25;;;;;26.28;41.90;101695.88;4988717;28;45350;-82
2021/06/13 02:12:11;;;;;;;;;6.50;6.50;;;;;26.33;42.08;101698.41;5002203;28;45487;-81
2021/06/13 02:14:54;;;;;;;;;10.25;8.50;;;;;26.29;42.10;101702.97;4968924;28;47489;-82
2021/06/13 02:17:22;;;;;;;;;10.25;7.75;;;;;26.29;42.69;101704.78;4984855;28;55198;-81
2021/06/13 02:19:48;;;;;;;;;7.75;7.75;;;;;26.29;42.16;101707.47;4969366;28;45315;-81
2021/06/13 02:22:18;;;;;;;;;7.50;7.50;;;;;26.21;42.49;101689.91;4969584;28;45544;-81
2021/06/13 02:24:43;;;;;;;;;9.25;8.75;;;;;26.26;42.53;101710.28;4960759;28;48152;-80
2021/06/13 02:27:09;;;;;;;;;8.25;8.25;;;;;26.23;42.63;101708.56;5004543;28;45440;-80
2021/06/13 02:29:34;;;;;;;;;8.00;8.00;;;;;26.20;42.16;101706.03;4975543;28;45482;-80
2021/06/13 02:32:03;;;;;;;;;8.00;8.00;;;;;26.17;42.80;101706.16;4988279;28;45455;-79
2021/06/13 02:34:29;;;;;;;;;7.00;7.00;;;;;26.15;42.72;101711.59;5004409;28;45356;-79
2021/06/13 02:36:56;;;;;;;;;8.75;8.00;;;;;26.14;42.30;101703.59;4967929;28;45434;-79
2021/06/13 02:39:22;;;;;;;;;7.75;7.75;;;;;26.13;42.30;101709.88;4963466;28;45474;-79
2021/06/13 02:41:47;;;;;;;;;6.00;6.00;;;;;26.15;42.13;101710.69;4988233;28;45297;-79
2021/06/13 02:44:13;;;;;;;;;9.00;8.00;;;;;26.12;42.41;101711.69;4987993;28;48462;-79
2021/06/13 02:46:38;;;;;;;;;9.00;8.00;;;;;26.09;42.95;101708.28;4988116;28;45420;-79
2021/06/13 02:49:05;;;;;;;;;8.50;8.00;;;;;26.11;42.41;101717.97;4988165;28;45481;-79
2021/06/13 02:51:35;;;;;;;;;8.75;7.75;;;;;26.10;42.40;101716.25;4992879;28;45278;-79
2021/06/13 02:54:03;;;;;;;;;9.00;7.00;;;;;26.09;42.34;101718.97;5004461;28;45373;-79
2021/06/13 02:56:31;;;;;;;;;8.75;7.00;;;;;26.08;42.37;101728.81;4987945;28;45412;-80
2021/06/13 02:59:17;;;;;;;;;10.50;8.75;;;;;26.09;42.23;101733.22;5010299;28;45288;-79
2021/06/13 03:01:45;;;;;;;;;6.50;6.50;;;;;26.09;42.70;101733.22;4994232;28;45488;-79
2021/06/13 03:04:11;;;;;;;;;7.00;7.00;;;;;26.09;42.41;101748.41;5007029;28;46410;-79
2021/06/13 03:06:36;;;;;;;;;6.50;6.50;;;;;26.06;42.57;101736.03;4976386;28;45363;-79
2021/06/13 03:09:01;;;;;;;;;8.50;6.50;;;;;26.08;42.10;101744.00;4969808;28;59005;-80
2021/06/13 03:11:28;;;;;;;;;11.75;9.00;;;;;26.07;42.31;101745.81;4968588;28;45323;-79
2021/06/13 03:13:53;;;;;;;;;7.00;7.00;;;;;26.07;42.68;101750.28;4964750;28;47105;-79
2021/06/13 03:16:19;;;;;;;;;8.00;7.75;;;;;26.05;42.18;101755.66;4968337;28;45438;-79
2021/06/13 03:18:46;;;;;;;;;10.00;7.00;;;;;26.07;42.48;101756.50;4965007;28;45265;-79
2021/06/13 03:21:12;;;;;;;;;9.00;8.50;;;;;26.08;42.34;101758.25;4960225;28;45292;-79
2021/06/13 03:23:37;;;;;;;;;9.00;8.00;;;;;26.06;42.06;101759.22;5001887;28;46108;-79
2021/06/13 03:26:03;;;;;;;;;8.00;8.00;;;;;26.08;42.48;101762.72;4956907;28;45196;-79
2021/06/13 03:28:29;;;;;;;;;7.00;7.00;;;;;26.07;42.10;101753.81;4981079;28;58555;-79
2021/06/13 03:30:55;;;;;;;;;7.25;7.25;;;;;26.06;42.52;101756.53;5004076;28;45285;-79
2021/06/13 03:33:20;;;;;;;;;9.75;9.00;;;;;26.03;41.34;101762.88;4987368;28;45703;-79
2021/06/13 03:35:46;;;;;;;;;9.75;8.25;;;;;25.98;42.00;101756.00;4986584;28;65272;-79
2021/06/13 03:38:11;;;;;;;;;9.00;6.75;;;;;25.95;42.31;101756.97;4967928;28;45272;-81
2021/06/13 03:40:37;;;;;;;;;7.00;6.75;;;;;25.92;41.66;101749.06;4984298;28;45507;-82
2021/06/13 03:43:02;;;;;;;;;9.00;7.25;;;;;25.91;42.38;101756.22;4968095;28;45472;-81
2021/06/13 03:45:28;;;;;;;;;8.50;8.50;;;;;25.86;41.45;101751.97;4987308;28;45693;-81
2021/06/13 03:47:53;;;;;;;;;12.50;9.50;;;;;25.85;41.59;101761.78;5002374;28;45373;-81
2021/06/13 03:50:19;;;;;;;;;10.00;7.25;;;;;25.84;41.85;101759.19;4967110;28;45419;-80
2021/06/13 03:52:45;;;;;;;;;9.75;8.00;;;;;25.82;41.95;101756.56;4987340;28;47103;-80
2021/06/13 03:55:10;;;;;;;;;8.50;6.75;;;;;25.77;41.81;101760.34;4996614;28;45334;-80
2021/06/13 03:57:38;;;;;;;;;10.50;9.75;;;;;25.75;42.23;101771.09;4997441;28;45355;-80
2021/06/13 04:00:04;;;;;;;;;9.25;8.00;;;;;25.71;42.46;101764.09;4987699;28;45270;-80
2021/06/13 04:02:30;;;;;;;;;7.00;7.00;;;;;25.69;42.14;101760.59;4978290;28;47311;-80
2021/06/13 04:04:55;;;;;;;;;8.50;8.50;;;;;25.72;42.19;101768.56;4967415;28;45296;-80
2021/06/13 04:07:21;;;;;;;;;11.00;7.25;;;;;25.66;42.31;101763.41;4996790;28;45309;-80
2021/06/13 04:09:46;;;;;;;;;8.25;8.25;;;;;25.71;42.13;101769.47;4983451;28;50215;-81
2021/06/13 04:12:19;;;;;;;;;7.50;7.50;;;;;25.73;42.35;101772.09;4967436;28;45594;-80
2021/06/13 04:14:45;;;;;;;;;8.00;7.25;;;;;25.75;42.25;101776.44;4956732;28;45814;-82
2021/06/13 04:17:18;;;;;;;;;8.00;8.00;;;;;25.76;41.98;101780.88;4951237;28;45312;-81
2021/06/13 04:19:45;;;;;;;;;8.75;8.00;;;;;25.76;41.53;101780.88;4976884;28;45556;-82
2021/06/13 04:22:11;;;;;;;;;8.00;7.00;;;;;25.77;42.15;101789.75;4983840;28;45625;-82
2021/06/13 04:24:37;;;;;;;;;8.75;7.00;;;;;25.77;42.02;101785.28;4977081;28;45432;-81
2021/06/13 04:27:02;;;;;;;;;9.50;7.50;;;;;25.78;41.40;101791.50;4969237;28;47696;-82
2021/06/13 04:29:28;;;;;;;;;9.75;8.00;;;;;25.77;41.38;101800.47;4974726;28;45957;-82
2021/06/13 04:31:56;;;;;;;;;8.00;8.00;;;;;25.74;42.01;101788.09;4993693;28;45272;-81
2021/06/13 04:34:22;;;;;;;;;8.25;8.00;;;;;25.75;41.68;101795.16;4963568;28;60307;-81
2021/06/13 04:36:47;;;;;;;;;8.00;8.00;;;;;25.67;41.76;101778.50;4981698;28;45214;-81
2021/06/13 04:39:13;;;;;;;;;7.50;7.50;;;;;25.75;41.42;101797.84;4979909;28;60331;-81
2021/06/13 04:41:38;;;;;;;;;8.00;7.75;;;;;25.74;42.80;101796.09;4992429;28;47523;-83
2021/06/13 04:44:04;;;;;;;;;10.25;10.25;;;;;25.73;42.03;101794.38;4979619;28;49364;-82
2021/06/13 04:46:31;;;;;;;;;6.75;6.75;;;;;25.73;41.68;101798.84;4980501;28;45358;-83
2021/06/13 04:48:56;;;;;;;;;8.25;7.25;;;;;25.72;41.52;101803.31;4980147;28;45459;-83
2021/06/13 04:51:24;;;;;;;;;9.25;7.50;;;;;25.73;41.15;101802.38;4985411;28;53879;-84
2021/06/13 04:53:58;;;;;;;;;7.00;6.00;;;;;25.74;40.86;101812.16;4972733;28;45282;-83
2021/06/13 04:56:59;;;;;;;;;10.00;8.00;;;;;25.76;40.85;101807.59;4996028;28;45390;-84
2021/06/13 04:59:24;;;;;;;;;7.75;6.25;;;;;25.80;41.12;101811.94;4979159;28;45357;-84
2021/06/13 05:01:50;;;;;;;;;9.25;7.00;;;;;25.83;40.56;101809.13;4987562;28;55357;-84
2021/06/13 05:04:16;;;;;;;;;7.00;7.00;;;;;25.84;40.08;101807.31;4998938;28;45452;-83
2021/06/13 05:06:45;;;;;;;;;8.25;7.00;;;;;25.81;39.82;101804.78;4991112;28;45465;-83
2021/06/13 05:09:10;;;;;;;;;6.75;6.75;;;;;25.80;40.05;101805.69;4993764;28;45552;-83
2021/06/13 05:11:36;;;;;;;;;8.25;8.25;;;;;25.77;39.35;101805.81;4979540;28;45433;-82
2021/06/13 05:14:01;;;;;;;;;10.00;8.00;;;;;25.72;39.26;101808.66;4964901;28;45376;-79
2021/06/13 05:16:27;;;;;;;;;7.00;7.00;;;;;25.70;39.67;101810.47;5000810;28;51465;-80
2021/06/13 05:18:52;;;;;;;;;8.75;8.00;;;;;25.72;39.66;101818.50;5008396;28;55702;-81
2021/06/13 05:21:20;;;;;;;;;9.50;9.00;;;;;25.71;39.97;101822.06;4978470;28;69762;-81
2021/06/13 05:23:46;;;;;;;;;10.00;9.00;;;;;25.67;40.16;101817.75;4979286;28;45494;-81
2021/06/13 05:26:11;;;;;;;;;8.75;8.50;;;;;25.67;39.64;101821.28;4966008;28;45270;-81
2021/06/13 05:28:36;;;;;;;;;7.75;7.75;;;;;25.65;39.89;101823.16;4961244;28;54459;-83
2021/06/13 05:31:02;;;;;;;;;9.25;8.25;;;;;25.62;39.25;101823.25;4982369;28;47250;-81
2021/06/13 05:33:27;;;;;;;;;10.00;9.25;;;;;25.63;40.06;101828.56;4980160;28;47337;-83
2021/06/13 05:35:53;;;;;;;;;9.50;8.00;;;;;25.63;39.80;101827.69;5019286;28;53803;-80
2021/06/13 05:38:19;;;;;;;;;8.75;8.75;;;;;25.71;39.72;101828.28;4982437;28;45832;-80
2021/06/13 05:40:44;;;;;;;;;9.25;9.25;;;;;25.72;39.76;101830.06;4993728;28;46120;-82
2021/06/13 05:43:10;;;;;;;;;11.00;9.00;;;;;25.78;39.37;101834.28;4984088;28;45219;-83
2021/06/13 05:45:36;;;;;;;;;9.75;8.00;;;;;25.78;39.83;101827.13;4968131;28;45278;-78
2021/06/13 05:48:01;;;;;;;;;7.75;7.75;;;;;25.86;39.20;101838.44;4949860;28;45559;-81
2021/06/13 05:50:27;;;;;;;;;9.50;7.50;;;;;25.85;39.32;101839.38;4974050;28;45482;-80
2021/06/13 05:52:52;;;;;;;;;10.75;8.50;;;;;25.88;39.33;101839.22;5005866;28;65122;-79
2021/06/13 05:55:18;;;;;;;;;8.00;8.00;;;;;25.91;39.58;101839.16;5020015;28;45451;-85
2021/06/13 05:57:44;;;;;;;;;8.25;6.50;;;;;25.95;39.35;101834.53;5001767;28;45250;-83
2021/06/13 06:00:17;;;;;;;;;7.25;7.25;;;;;25.98;38.39;101838.91;4985587;28;45269;-84
2021/06/13 06:02:43;;;;;;;;;8.00;8.00;;;;;25.99;38.02;101844.22;4957515;28;45961;-79
2021/06/13 06:05:12;;;;;;;;;9.00;7.00;;;;;25.97;37.93;101837.16;4999789;28;45243;-81
2021/06/13 06:07:37;;;;;;;;;8.00;8.00;;;;;25.97;37.43;101842.50;4962790;28;45453;-79
2021/06/13 06:10:04;;;;;;;;;10.00;8.00;;;;;25.92;37.47;101848.91;4967286;28;55536;-80
2021/06/13 06:12:29;;;;;;;;;6.50;6.00;;;;;25.90;37.25;101850.78;5001982;28;45329;-82
2021/06/13 06:14:54;;;;;;;;;7.00;7.00;;;;;25.85;36.73;101852.72;4972084;28;45796;-82
2021/06/13 06:17:20;;;;;;;;;6.50;5.75;;;;;25.84;37.41;101853.66;4985685;28;53898;-83
2021/06/13 06:19:45;;;;;;;;;9.75;8.50;;;;;25.86;37.42;101857.16;5018562;28;61335;-85
2021/06/13 06:22:11;;;;;;;;;9.00;7.25;;;;;25.90;37.27;101856.13;4980498;28;45402;-82
2021/06/13 06:24:37;;;;;;;;;6.50;6.50;;;;;25.91;37.42;101851.66;4952966;28;45222;-76
2021/06/13 06:27:05;;;;;;;;;8.25;7.00;;;;;25.91;36.77;101851.66;4969151;28;45278;-76
2021/06/13 06:29:33;;;;;;;;;7.00;7.00;;;;;25.93;37.03;101852.47;4985051;28;47197;-77
2021/06/13 06:31:58;;;;;;;;;6.00;6.00;;;;;25.95;37.16;101857.75;5002494;28;45506;-75
2021/06/13 06:34:24;;;;;;;;;6.00;6.00;;;;;26.01;36.35;101862.88;4968761;28;45435;-77
2021/06/13 06:36:49;;;;;;;;;8.75;6.00;;;;;26.02;36.67;101861.94;4968750;28;45268;-76
2021/06/13 06:39:15;;;;;;;;;5.50;5.50;;;;;26.07;36.44;101862.66;4984993;28;46916;-80
2021/06/13 06:41:40;;;;;;;;;7.25;6.75;;;;;26.14;36.59;101867.69;4981603;28;45255;-75
2021/06/13 06:44:06;;;;;;;;;8.25;7.25;;;;;26.20;36.31;101878.16;4985107;28;45254;-76
2021/06/13 06:46:32;;;;;;;;;7.00;7.00;;;;;26.26;36.81;101876.22;4996519;28;45511;-77
2021/06/13 06:48:58;;;;;;;;;8.00;7.00;;;;;26.31;36.06;101872.41;4993977;28;45261;-76
2021/06/13 06:51:25;;;;;;;;;7.00;6.00;;;;;26.34;36.57;101861.59;4985378;28;45199;-77
2021/06/13 06:53:50;;;;;;;;;8.00;7.25;;;;;26.39;36.22;101864.97;4969049;28;45429;-77
2021/06/13 06:56:18;;;;;;;;;8.50;7.25;;;;;26.44;35.98;101868.38;4992165;28;46181;-75
2021/06/13 06:58:44;;;;;;;;;6.75;6.75;;;;;26.47;35.39;101862.88;4994543;28;46552;-75
2021/06/13 07:01:09;;;;;;;;;7.00;7.00;;;;;26.52;35.35;101867.19;4984509;28;57267;-75
2021/06/13 07:03:34;;;;;;;;;6.00;6.00;;;;;26.46;35.18;101860.28;4968360;28;45274;-76
2021/06/13 07:06:00;;;;;;;;;9.00;6.25;;;;;26.53;35.00;101868.94;4984396;28;45412;-76
2021/06/13 07:08:25;;;;;;;;;6.00;6.00;;;;;26.53;34.99;101866.25;4959555;28;47469;-77
2021/06/13 07:10:51;;;;;;;;;6.50;5.50;;;;;26.57;35.22;101867.88;4987111;28;45285;-75
2021/06/13 07:13:17;;;;;;;;;6.50;6.50;;;;;26.48;34.62;101848.56;4988015;28;45279;-76
2021/06/13 07:15:42;;;;;;;;;5.25;5.00;;;;;26.61;35.05;101872.19;5006280;28;45429;-80
2021/06/13 07:18:08;;;;;;;;;8.00;7.00;;;;;26.65;34.28;101869.31;4973275;28;47504;-74
2021/06/13 07:20:35;;;;;;;;;8.50;7.75;;;;;26.70;34.81;101878.03;4953054;28;45344;-73
2021/06/13 07:23:00;;;;;;;;;6.50;6.50;;;;;26.70;34.50;101878.03;5012479;28;45587;-74
2021/06/13 07:25:26;;;;;;;;;6.00;5.00;;;;;26.74;34.88;101870.75;4986408;28;52340;-76
2021/06/13 07:27:51;;;;;;;;;6.00;6.00;;;;;26.77;34.37;101886.72;4972772;28;64493;-75
2021/06/13 07:30:17;;;;;;;;;8.75;7.25;;;;;26.74;34.78;101876.09;5015765;28;45451;-75
2021/06/13 07:32:43;;;;;;;;;7.00;6.25;;;;;26.83;33.54;101885.56;5021732;28;45368;-75
2021/06/13 07:35:09;;;;;;;;;7.75;6.00;;;;;26.81;33.98;101877.59;4984957;28;45381;-75
2021/06/13 07:37:35;;;;;;;;;6.25;6.00;;;;;26.81;33.90;101877.59;4968113;28;45563;-75
2021/06/13 07:40:00;;;;;;;;;7.00;6.00;;;;;26.88;34.40;101884.47;4967909;28;45293;-75
2021/06/13 07:42:26;;;;;;;;;6.00;5.00;;;;;26.92;33.93;101883.41;4967979;28;45496;-75
2021/06/13 07:44:51;;;;;;;;;6.00;6.00;;;;;26.93;34.22;101881.59;4984088;28;45248;-75
2021/06/13 07:47:17;;;;;;;;;7.75;6.75;;;;;26.95;34.39;101879.75;4983949;28;45495;-75
2021/06/13 07:49:43;;;;;;;;;7.25;6.00;;;;;26.99;33.59;101884.91;4983803;28;45247;-76
2021/06/13 07:52:08;;;;;;;;;7.00;6.00;;;;;27.01;32.96;101883.00;5005721;28;66270;-74
2021/06/13 07:54:36;;;;;;;;;6.50;5.00;;;;;27.00;33.30;101880.41;5001450;28;45258;-75
2021/06/13 07:57:02;;;;;;;;;7.00;6.00;;;;;27.01;33.39;101877.66;4983724;28;47698;-75
2021/06/13 07:59:27;;;;;;;;;5.75;5.75;;;;;27.01;33.26;101877.66;4983711;28;46175;-75
2021/06/13 08:01:53;;;;;;;;;7.00;6.00;;;;;27.00;33.23;101883.94;4956591;28;45432;-75
2021/06/13 08:04:18;;;;;;;;;6.75;6.00;;;;;27.06;33.61;101868.59;5002795;28;45335;-75
2021/06/13 08:06:44;;;;;;;;;6.25;4.75;;;;;27.06;32.94;101877.50;4987094;28;45617;-76
2021/06/13 08:09:09;;;;;;;;;6.75;6.00;;;;;27.03;33.24;101870.47;5005727;28;57804;-74
2021/06/13 08:11:35;;;;;;;;;6.25;6.25;;;;;27.08;33.46;101862.22;4983872;28;45453;-75
2021/06/13 08:14:01;;;;;;;;;6.25;5.50;;;;;27.14;33.81;101874.50;4984770;28;45343;-76
2021/06/13 08:16:29;;;;;;;;;6.75;6.75;;;;;27.17;33.13;101874.38;4977759;28;47618;-73
2021/06/13 08:18:55;;;;;;;;;5.75;5.75;;;;;27.14;33.56;101869.16;5003665;28;45575;-73
2021/06/13 08:21:20;;;;;;;;;5.50;5.50;;;;;27.17;33.86;101864.53;4967447;28;45475;-74
2021/06/13 08:23:53;;;;;;;;;5.25;5.25;;;;;27.23;33.04;101875.00;4962964;28;45498;-74
2021/06/13 08:26:37;;;;;;;;;5.00;5.00;;;;;27.23;32.96;101875.00;5009395;28;47174;-75
2021/06/13 08:29:03;;;;;;;;;6.00;5.50;;;;;27.21;32.75;101868.84;5005870;28;53004;-73
2021/06/13 08:35:08;;;;;;;;;5.00;4.75;;;;;27.09;32.79;101847.03;4900506;29;45310;-75
2021/06/13 08:37:35;;;;;;;;;4.25;4.25;;;;;27.22;33.31;101867.91;4907399;28;45503;-75
2021/06/13 08:40:01;;;;;;;;;6.25;6.25;;;;;27.18;33.13;101846.63;4920752;28;45463;-74
2021/06/13 08:42:27;;;;;;;;;5.75;5.00;;;;;27.36;33.00;101874.47;4902158;29;45368;-74
2021/06/13 08:44:52;;;;;;;;;8.00;8.00;;;;;27.36;33.18;101869.97;4927470;28;55853;-75
2021/06/13 08:47:19;;;;;;;;;9.25;6.00;;;;;27.36;32.34;101875.34;4988143;28;47359;-74
2021/06/13 08:49:46;;;;;;;;;9.00;6.00;;;;;27.36;32.48;101872.66;5000205;28;45529;-75
2021/06/13 08:52:11;;;;;;;;;6.50;5.00;;;;;27.35;32.10;101873.59;4972025;28;45456;-75
2021/06/13 08:54:40;;;;;;;;;5.50;5.50;;;;;27.38;31.58;101870.81;4982912;28;45430;-75
2021/06/13 08:57:06;;;;;;;;;5.00;5.00;;;;;27.34;31.93;101861.13;4961716;28;46978;-77
2021/06/13 08:59:31;;;;;;;;;5.00;5.00;;;;;27.37;31.27;101857.47;4999338;28;45198;-73
2021/06/13 09:01:57;;;;;;;;;5.00;5.00;;;;;27.33;31.47;101852.22;4959408;28;45280;-74
2021/06/13 09:04:23;;;;;;;;;5.75;5.75;;;;;27.38;32.28;101860.06;5003387;28;45272;-74
2021/06/13 09:06:51;;;;;;;;;5.50;5.50;;;;;27.38;32.01;101852.03;4991429;28;62882;-74
2021/06/13 09:09:24;;;;;;;;;6.00;6.00;;;;;27.44;31.85;101856.25;5001609;28;45369;-73
2021/06/13 09:12:02;;;;;;;;;5.00;5.00;;;;;27.41;31.84;101849.22;5000427;28;45431;-74
2021/06/13 09:14:37;;;;;;;;;8.25;6.00;;;;;27.44;31.80;101846.38;4982363;28;45540;-75
2021/06/13 09:17:29;;;;;;;;;7.00;7.00;;;;;27.49;31.89;101841.69;4963670;28;47320;-74
2021/06/13 09:20:08;;;;;;;;;5.50;5.00;;;;;27.53;31.68;101850.47;4988289;28;45263;-75
2021/06/13 09:22:36;;;;;;;;;7.00;7.00;;;;;27.53;32.09;101848.66;5001417;28;45453;-73
2021/06/13 09:25:13;;;;;;;;;5.25;5.25;;;;;27.56;32.73;101840.50;4998949;28;45511;-74
2021/06/13 09:27:40;;;;;;;;;9.00;6.00;;;;;27.53;31.92;101839.75;4999973;28;45507;-74
2021/06/13 09:30:10;;;;;;;;;5.25;5.25;;;;;27.58;31.66;101854.72;4999952;28;45458;-74
2021/06/13 09:33:03;;;;;;;;;5.50;4.75;;;;;27.61;32.22;101848.31;5000275;28;45218;-74
2021/06/13 09:35:34;;;;;;;;;5.75;5.00;;;;;27.64;32.51;101850.03;4999529;28;45278;-74
2021/06/13 09:38:25;;;;;;;;;6.00;6.00;;;;;27.67;32.55;101848.09;4978519;28;46401;-74
2021/06/13 09:41:01;;;;;;;;;5.00;5.00;;;;;27.70;32.42;101847.06;4995138;28;45264;-74
2021/06/13 09:43:30;;;;;;;;;7.25;7.00;;;;;27.72;33.04;101851.47;4998582;28;45279;-72
2021/06/13 09:46:12;;;;;;;;;18.50;15.75;;;;;27.76;33.35;101852.19;4989602;28;45353;-79
2021/06/13 09:48:49;;;;;;;;;6.50;6.50;;;;;27.67;32.99;101834.69;5002017;28;45344;-79
2021/06/13 09:51:18;;;;;;;;;7.50;5.50;;;;;27.71;32.64;101833.59;5002041;28;45199;-79
2021/06/13 09:57:15;;;;;;;;;6.25;6.25;;;;;27.77;33.34;101846.72;5014629;28;45259;-81
2021/06/13 09:59:50;;;;;;;;;6.75;6.75;;;;;27.76;33.03;101836.09;4972042;28;47559;-80
2021/06/13 10:02:16;;;;;;;;;7.00;7.00;;;;;27.84;32.68;101844.66;4973494;28;45461;-76
2021/06/13 10:04:51;;;;;;;;;6.50;6.25;;;;;27.83;32.54;101841.09;5004954;28;45637;-83
2021/06/13 10:07:16;;;;;;;;;5.00;5.00;;;;;27.85;33.68;101841.03;4988161;28;45560;-78
2021/06/13 10:09:44;;;;;;;;;10.25;8.00;;;;;27.88;34.87;101840.88;4992081;28;46313;-76
2021/06/13 10:12:10;;;;;;;;;9.00;7.50;;;;;27.81;33.88;101821.53;4977258;28;45941;-82
2021/06/13 10:14:36;;;;;;;;;7.00;6.00;;;;;27.91;34.09;101827.34;4972368;28;45268;-82
2021/06/13 10:17:01;;;;;;;;;11.25;7.00;;;;;27.95;33.50;101825.38;4975526;28;45264;-76
2021/06/13 10:19:44;;;;;;;;;6.00;5.50;;;;;28.02;33.36;101824.16;4984662;28;45522;-77
2021/06/13 10:22:11;;;;;;;;;7.50;7.50;;;;;28.00;33.51;101824.22;4986834;28;45248;-75
2021/06/13 10:24:42;;;;;;;;;7.00;6.25;;;;;27.99;34.13;101819.81;4984198;28;45259;-77
2021/06/13 10:27:16;;;;;;;;;6.00;6.00;;;;;28.05;34.11;101813.25;4981482;28;45973;-77
2021/06/13 10:29:49;;;;;;;;;7.00;7.00;;;;;28.07;34.49;101814.97;4977126;28;46397;-74
2021/06/13 10:32:59;;;;;;;;;8.00;5.25;;;;;28.02;34.33;101795.50;4989541;28;45287;-73
2021/06/13 10:36:00;;;;;;;;;;;;;;;;;;;;;
2021/06/13 10:38:45;;;;;;;;;;;;;;;;;;;;;
2021/06/13 10:41:11;;;;;;;;;6.50;6.50;;;;;28.12;33.39;101790.56;5004294;28;75183;-86
2021/06/13 10:43:49;;;;;;;;;;;;;;;;;;;;;
2021/06/13 10:46:36;;;;;;;;;6.00;5.00;;;;;28.15;31.45;101810.09;4987119;28;67955;-88
2021/06/13 10:49:31;;;;;;;;;4.75;4.75;;;;;28.11;31.53;101807.63;4975030;28;45256;-85
2021/06/13 10:52:27;;;;;;;;;4.25;4.25;;;;;28.07;31.46;101809.59;4983956;28;46152;-88
2021/06/13 10:54:56;;;;;;;;;7.75;7.75;;;;;28.06;32.34;101799.81;5002991;28;45789;-90
2021/06/13 10:57:31;;;;;;;;;6.00;6.00;;;;;28.06;33.67;101796.22;4987936;28;45345;-83
2021/06/13 10:59:58;;;;;;;;;7.00;7.00;;;;;28.00;33.21;101781.28;5021979;28;45422;-80
2021/06/13 11:02:49;;;;;;;;;;;;;;;;;;;;;
2021/06/13 11:05:37;;;;;;;;;5.50;5.50;;;;;27.97;31.41;101776.03;5011124;28;72911;-80
2021/06/13 11:08:06;;;;;;;;;5.25;4.50;;;;;27.77;30.78;101766.25;4975494;28;45349;-80
2021/06/13 11:10:49;;;;;;;;;;;;;;;;;;;;;
2021/06/13 11:13:20;;;;;;;;;7.50;6.00;;;;;27.78;30.61;101783.22;4999186;28;75588;-78
2021/06/13 11:16:03;;;;;;;;;;;;;;;;;;;;;
2021/06/13 11:18:32;;;;;;;;;5.75;5.75;;;;;27.60;30.40;101767.00;4986330;28;67592;-81
2021/06/13 11:21:25;;;;;;;;;5.00;5.00;;;;;27.56;30.55;101752.00;4987656;28;45484;-84
2021/06/13 11:24:43;;;;;;;;;6.25;6.25;;;;;27.75;30.62;101778.00;5006969;28;45479;-82
2021/06/13 11:27:12;;;;;;;;;4.75;4.75;;;;;27.70;31.02;101778.19;4971775;28;45487;-85
2021/06/13 11:29:50;;;;;;;;;5.25;5.25;;;;;27.78;30.88;101776.03;4996112;28;45294;-83
2021/06/13 11:32:53;;;;;;;;;5.00;5.00;;;;;27.78;30.13;101777.84;4996888;28;45433;-86
2021/06/13 11:35:29;;;;;;;;;4.00;4.00;;;;;27.74;30.61;101771.78;4968516;28;47307;-85
2021/06/13 11:38:23;;;;;;;;;6.00;4.25;;;;;27.74;29.99;101773.59;4968983;28;45800;-89
2021/06/13 11:40:50;;;;;;;;;4.25;4.25;;;;;27.66;30.00;101760.53;5002215;28;45325;-82
2021/06/13 11:43:52;;;;;;;;;;;;;;;;;;;;;
2021/06/13 11:46:38;;;;;;;;;4.25;4.25;;;;;27.40;30.10;101732.19;4997317;28;73959;-78
2021/06/13 11:49:08;;;;;;;;;5.00;3.25;;;;;27.44;30.21;101736.44;5000214;28;45270;-79
2021/06/13 11:52:07;;;;;;;;;5.00;4.75;;;;;27.54;30.07;101744.94;4977680;28;45468;-84